Time;durP1;ratioP1;P1;durP2;ratioP2;P2;SDS_P1;SDS_P2;PMS_P1;PMS_P2;Temp;Humidity;BMP_temperature;BMP_pressure;BME280_temperature;BME280_humidity;BME280_pressure;Samples;Min_cycle;Max_cycle;Signal;HPM_P1;HPM_P2
2022/02/18 00:01:16;;;;;;;0.00;0.00;;;;;;;;;;4988769;28;20384;-73
2022/02/18 00:03:44;;;;;;;10.07;1.52;;;;;;;;;;4989043;28;20039;-73
2022/02/18 00:06:16;;;;;;;0.28;0.28;;;;;;;;;;4988875;28;20014;-73
2022/02/18 00:08:44;;;;;;;0.00;0.00;;;;;;;;;;4976327;28;20544;-74
2022/02/18 00:11:10;;;;;;;0.00;0.00;;;;;;;;;;4981931;28;20066;-74
2022/02/18 00:13:36;;;;;;;0.08;0.08;;;;;;;;;;4986045;28;20503;-74
2022/02/18 00:16:03;;;;;;;0.10;0.10;;;;;;;;;;4989424;28;20165;-74
2022/02/18 00:18:29;;;;;;;0.10;0.10;;;;;;;;;;4990194;28;20026;-74
2022/02/18 00:20:55;;;;;;;0.05;0.05;;;;;;;;;;4978515;28;20038;-74
2022/02/18 00:23:21;;;;;;;0.00;0.00;;;;;;;;;;4989663;28;20022;-74
2022/02/18 00:25:47;;;;;;;0.13;0.05;;;;;;;;;;4988307;28;20030;-73
2022/02/18 00:28:13;;;;;;;0.00;0.00;;;;;;;;;;4984258;28;20129;-73
2022/02/18 00:30:39;;;;;;;0.10;0.10;;;;;;;;;;4990568;28;20019;-74
2022/02/18 00:33:05;;;;;;;1.02;1.00;;;;;;;;;;4983468;28;20089;-73
2022/02/18 00:35:31;;;;;;;0.17;0.17;;;;;;;;;;4980881;28;20064;-73
2022/02/18 00:37:57;;;;;;;0.00;0.00;;;;;;;;;;4990912;28;20050;-73
2022/02/18 00:40:23;;;;;;;0.10;0.10;;;;;;;;;;4972675;28;20548;-73
2022/02/18 00:42:49;;;;;;;0.03;0.03;;;;;;;;;;4985802;28;20037;-73
2022/02/18 00:45:16;;;;;;;2.63;0.70;;;;;;;;;;4987602;28;20022;-73
2022/02/18 00:47:41;;;;;;;0.00;0.00;;;;;;;;;;4996357;28;20097;-73
2022/02/18 00:50:10;;;;;;;0.40;0.40;;;;;;;;;;4984399;28;20481;-73
2022/02/18 00:52:36;;;;;;;0.15;0.15;;;;;;;;;;4991027;28;20499;-73
2022/02/18 00:55:02;;;;;;;0.22;0.22;;;;;;;;;;4998620;28;20053;-73
2022/02/18 00:57:28;;;;;;;0.10;0.10;;;;;;;;;;5005759;28;20515;-73
2022/02/18 00:59:55;;;;;;;0.00;0.00;;;;;;;;;;5002093;28;20034;-73
2022/02/18 01:02:21;;;;;;;0.10;0.10;;;;;;;;;;5006806;28;20034;-73
2022/02/18 01:04:46;;;;;;;0.10;0.08;;;;;;;;;;5005610;28;20038;-73
2022/02/18 01:07:12;;;;;;;0.40;0.40;;;;;;;;;;5005103;28;20380;-73
2022/02/18 01:09:38;;;;;;;0.52;0.52;;;;;;;;;;5007667;28;20481;-72
2022/02/18 01:12:04;;;;;;;0.00;0.00;;;;;;;;;;5009349;28;20053;-72
2022/02/18 01:14:30;;;;;;;0.00;0.00;;;;;;;;;;4997571;28;20030;-73
2022/02/18 01:16:56;;;;;;;0.52;0.52;;;;;;;;;;4996430;28;20041;-73
2022/02/18 01:19:22;;;;;;;0.00;0.00;;;;;;;;;;5004716;28;20665;-73
2022/02/18 01:21:48;;;;;;;0.00;0.00;;;;;;;;;;5011899;28;20037;-73
2022/02/18 01:24:14;;;;;;;0.00;0.00;;;;;;;;;;4996673;28;20049;-72
2022/02/18 01:26:40;;;;;;;0.20;0.20;;;;;;;;;;4996628;28;20077;-73
2022/02/18 01:29:06;;;;;;;0.10;0.10;;;;;;;;;;5000120;28;20030;-73
2022/02/18 01:31:32;;;;;;;0.20;0.20;;;;;;;;;;5009111;28;20499;-72
2022/02/18 01:33:58;;;;;;;5.47;1.08;;;;;;;;;;4996803;28;20030;-73
2022/02/18 01:36:24;;;;;;;1.40;0.25;;;;;;;;;;5001153;28;20053;-73
2022/02/18 01:38:50;;;;;;;0.60;0.60;;;;;;;;;;5003068;28;20520;-73
2022/02/18 01:41:16;;;;;;;0.75;0.75;;;;;;;;;;5002644;28;20037;-73
2022/02/18 01:43:52;;;;;;;0.00;0.00;;;;;;;;;;5009399;28;20299;-74
2022/02/18 01:46:18;;;;;;;0.10;0.10;;;;;;;;;;5000882;28;20045;-74
2022/02/18 01:48:44;;;;;;;0.00;0.00;;;;;;;;;;4999507;28;20057;-73
2022/02/18 01:51:10;;;;;;;0.00;0.00;;;;;;;;;;5006341;28;20504;-73
2022/02/18 01:53:37;;;;;;;6.85;1.30;;;;;;;;;;5008572;28;20036;-73
2022/02/18 01:56:02;;;;;;;0.00;0.00;;;;;;;;;;5012998;28;20042;-73
2022/02/18 01:58:30;;;;;;;0.05;0.05;;;;;;;;;;5004879;28;20538;-73
2022/02/18 02:00:56;;;;;;;0.22;0.22;;;;;;;;;;5007326;28;20562;-73
2022/02/18 02:03:23;;;;;;;0.10;0.10;;;;;;;;;;5009147;28;20033;-73
2022/02/18 02:05:49;;;;;;;0.20;0.20;;;;;;;;;;5005003;28;20485;-72
2022/02/18 02:08:15;;;;;;;0.10;0.10;;;;;;;;;;5002257;28;20298;-72
2022/02/18 02:10:45;;;;;;;0.00;0.00;;;;;;;;;;5008188;28;20033;-72
2022/02/18 02:13:10;;;;;;;7.38;2.30;;;;;;;;;;5021489;28;20442;-72
2022/02/18 02:15:36;;;;;;;0.00;0.00;;;;;;;;;;5012021;28;20054;-72
2022/02/18 02:18:03;;;;;;;0.00;0.00;;;;;;;;;;5011776;28;20032;-73
2022/02/18 02:20:29;;;;;;;0.10;0.10;;;;;;;;;;5008267;28;20136;-73
2022/02/18 02:22:55;;;;;;;0.00;0.00;;;;;;;;;;5008297;28;20018;-73
2022/02/18 02:25:21;;;;;;;0.03;0.03;;;;;;;;;;5008366;28;20025;-73
2022/02/18 02:27:47;;;;;;;0.00;0.00;;;;;;;;;;5008598;28;20567;-73
2022/02/18 02:30:15;;;;;;;0.28;0.28;;;;;;;;;;5013741;28;20048;-72
2022/02/18 02:32:41;;;;;;;0.32;0.32;;;;;;;;;;5008642;28;20033;-72
2022/02/18 02:35:07;;;;;;;0.00;0.00;;;;;;;;;;4998025;28;20029;-73
2022/02/18 02:37:33;;;;;;;0.13;0.13;;;;;;;;;;5007397;28;20030;-73
2022/02/18 02:39:59;;;;;;;0.00;0.00;;;;;;;;;;5004677;28;20392;-72
2022/02/18 02:42:25;;;;;;;0.47;0.47;;;;;;;;;;4999952;28;20034;-73
2022/02/18 02:44:51;;;;;;;0.05;0.05;;;;;;;;;;5010230;28;20037;-72
2022/02/18 02:47:17;;;;;;;0.00;0.00;;;;;;;;;;5015198;28;20488;-72
2022/02/18 02:49:43;;;;;;;0.00;0.00;;;;;;;;;;5009711;28;20383;-72
2022/02/18 02:52:09;;;;;;;0.00;0.00;;;;;;;;;;5008587;28;20396;-72
2022/02/18 02:54:36;;;;;;;0.45;0.45;;;;;;;;;;4998078;28;20049;-73
2022/02/18 02:57:02;;;;;;;0.25;0.25;;;;;;;;;;4995476;28;20029;-73
2022/02/18 02:59:29;;;;;;;0.05;0.05;;;;;;;;;;5001573;28;20030;-73
2022/02/18 03:01:54;;;;;;;0.00;0.00;;;;;;;;;;5017626;28;20042;-72
2022/02/18 03:04:20;;;;;;;0.10;0.10;;;;;;;;;;5005988;28;20593;-73
2022/02/18 03:06:46;;;;;;;0.00;0.00;;;;;;;;;;5010841;28;20033;-72
2022/02/18 03:09:13;;;;;;;0.08;0.08;;;;;;;;;;5007840;28;20049;-73
2022/02/18 03:11:39;;;;;;;0.08;0.08;;;;;;;;;;5007592;28;20045;-73
2022/02/18 03:14:06;;;;;;;0.10;0.10;;;;;;;;;;5007190;28;20037;-73
2022/02/18 03:16:31;;;;;;;0.10;0.10;;;;;;;;;;5011167;28;20361;-73
2022/02/18 03:18:57;;;;;;;0.68;0.52;;;;;;;;;;4998278;28;20045;-72
2022/02/18 03:21:23;;;;;;;0.00;0.00;;;;;;;;;;4993148;28;20026;-72
2022/02/18 03:23:49;;;;;;;0.10;0.10;;;;;;;;;;5006968;28;20022;-73
2022/02/18 03:26:16;;;;;;;5.72;0.38;;;;;;;;;;5004042;28;20022;-73
2022/02/18 03:28:43;;;;;;;0.20;0.20;;;;;;;;;;5006853;28;20025;-73
2022/02/18 03:31:09;;;;;;;0.00;0.00;;;;;;;;;;5016816;28;20507;-72
2022/02/18 03:33:36;;;;;;;0.10;0.10;;;;;;;;;;5013219;28;20031;-72
2022/02/18 03:36:02;;;;;;;0.47;0.47;;;;;;;;;;5001421;28;20077;-72
2022/02/18 03:38:28;;;;;;;1.15;1.00;;;;;;;;;;4997677;28;20562;-72
2022/02/18 03:40:53;;;;;;;0.45;0.45;;;;;;;;;;5002188;28;20028;-72
2022/02/18 03:43:19;;;;;;;0.50;0.47;;;;;;;;;;5007656;28;20488;-73
2022/02/18 03:45:45;;;;;;;0.03;0.03;;;;;;;;;;5004613;28;20069;-73
2022/02/18 03:48:11;;;;;;;0.00;0.00;;;;;;;;;;5008160;28;20025;-73
2022/02/18 03:50:37;;;;;;;0.00;0.00;;;;;;;;;;5007461;28;20562;-72
2022/02/18 03:53:03;;;;;;;0.25;0.25;;;;;;;;;;5001205;28;20073;-73
2022/02/18 03:55:30;;;;;;;0.00;0.00;;;;;;;;;;4987728;28;20501;-73
2022/02/18 03:57:56;;;;;;;0.00;0.00;;;;;;;;;;4999988;28;20492;-73
2022/02/18 04:00:22;;;;;;;0.20;0.20;;;;;;;;;;5006980;28;20116;-73
2022/02/18 04:02:48;;;;;;;1.27;1.17;;;;;;;;;;5006219;28;20134;-73
2022/02/18 04:05:15;;;;;;;0.00;0.00;;;;;;;;;;5012109;28;20412;-72
2022/02/18 04:07:41;;;;;;;0.10;0.10;;;;;;;;;;5007601;28;20018;-72
2022/02/18 04:10:07;;;;;;;0.45;0.25;;;;;;;;;;5009673;28;20034;-73
2022/02/18 04:12:33;;;;;;;0.00;0.00;;;;;;;;;;5009784;28;20482;-73
2022/02/18 04:14:59;;;;;;;1.02;1.02;;;;;;;;;;5009944;28;20033;-73
2022/02/18 04:17:27;;;;;;;0.00;0.00;;;;;;;;;;5007814;28;20026;-73
2022/02/18 04:19:53;;;;;;;0.00;0.00;;;;;;;;;;5005795;28;20542;-73
2022/02/18 04:22:19;;;;;;;0.55;0.55;;;;;;;;;;5012905;28;20029;-73
2022/02/18 04:24:45;;;;;;;0.40;0.40;;;;;;;;;;5010150;28;20109;-73
2022/02/18 04:27:11;;;;;;;0.00;0.00;;;;;;;;;;5020865;28;20034;-73
2022/02/18 04:29:36;;;;;;;0.03;0.03;;;;;;;;;;5009462;28;20057;-73
2022/02/18 04:32:03;;;;;;;0.00;0.00;;;;;;;;;;5005672;28;20429;-73
2022/02/18 04:34:29;;;;;;;2.90;1.27;;;;;;;;;;5010067;28;20420;-73
2022/02/18 04:36:55;;;;;;;3.00;0.63;;;;;;;;;;5020290;28;20122;-73
2022/02/18 04:39:21;;;;;;;0.40;0.40;;;;;;;;;;5008180;28;20042;-72
2022/02/18 04:41:47;;;;;;;0.57;0.57;;;;;;;;;;5014486;28;20045;-72
2022/02/18 04:44:14;;;;;;;1.05;1.05;;;;;;;;;;4992789;28;20029;-72
2022/02/18 04:46:40;;;;;;;0.10;0.10;;;;;;;;;;4991112;28;20037;-73
2022/02/18 04:49:06;;;;;;;0.98;0.98;;;;;;;;;;5010385;28;20025;-73
2022/02/18 04:51:32;;;;;;;0.65;0.63;;;;;;;;;;5011895;28;20637;-73
2022/02/18 04:53:58;;;;;;;0.00;0.00;;;;;;;;;;5011349;28;20034;-72
2022/02/18 04:56:23;;;;;;;4.85;1.63;;;;;;;;;;5012541;28;20072;-73
2022/02/18 04:58:49;;;;;;;0.10;0.10;;;;;;;;;;5002658;28;20476;-72
2022/02/18 05:01:16;;;;;;;11.20;0.80;;;;;;;;;;5003851;28;20061;-73
2022/02/18 05:03:42;;;;;;;0.00;0.00;;;;;;;;;;5007223;28;20113;-73
2022/02/18 05:06:09;;;;;;;0.20;0.20;;;;;;;;;;5006198;28;20969;-73
2022/02/18 05:08:35;;;;;;;0.00;0.00;;;;;;;;;;5011074;28;20052;-73
2022/02/18 05:11:01;;;;;;;0.00;0.00;;;;;;;;;;5009232;28;20038;-73
2022/02/18 05:13:27;;;;;;;0.20;0.20;;;;;;;;;;5015105;28;20036;-72
2022/02/18 05:15:53;;;;;;;6.28;1.20;;;;;;;;;;5007092;28;20198;-73
2022/02/18 05:18:19;;;;;;;0.10;0.10;;;;;;;;;;5011871;28;20140;-73
2022/02/18 05:20:45;;;;;;;0.10;0.10;;;;;;;;;;5002420;28;20473;-72
2022/02/18 05:23:11;;;;;;;0.03;0.03;;;;;;;;;;5007249;28;20026;-73
2022/02/18 05:25:37;;;;;;;0.00;0.00;;;;;;;;;;5006057;28;20125;-72
2022/02/18 05:28:03;;;;;;;0.00;0.00;;;;;;;;;;5007068;28;20024;-73
2022/02/18 05:30:29;;;;;;;0.03;0.03;;;;;;;;;;5008052;28;20088;-73
2022/02/18 05:32:55;;;;;;;0.40;0.40;;;;;;;;;;4991298;28;20757;-73
2022/02/18 05:35:21;;;;;;;0.10;0.10;;;;;;;;;;5007706;28;20026;-72
2022/02/18 05:37:47;;;;;;;0.22;0.22;;;;;;;;;;5008912;28;20041;-73
2022/02/18 05:40:14;;;;;;;0.10;0.10;;;;;;;;;;5010111;28;20072;-72
2022/02/18 05:42:40;;;;;;;0.10;0.10;;;;;;;;;;5011558;28;20053;-73
2022/02/18 05:45:07;;;;;;;0.95;0.82;;;;;;;;;;5009544;28;20484;-73
2022/02/18 05:47:36;;;;;;;0.00;0.00;;;;;;;;;;5009007;28;20026;-73
2022/02/18 05:50:08;;;;;;;0.65;0.55;;;;;;;;;;5008362;28;20030;-73
2022/02/18 05:52:34;;;;;;;0.15;0.15;;;;;;;;;;4995761;28;20042;-72
2022/02/18 05:55:00;;;;;;;0.10;0.10;;;;;;;;;;4989328;28;20042;-73
2022/02/18 05:57:26;;;;;;;0.10;0.10;;;;;;;;;;4986948;28;20495;-73
2022/02/18 05:59:52;;;;;;;0.10;0.10;;;;;;;;;;4983533;28;20023;-73
2022/02/18 06:02:18;;;;;;;3.40;0.75;;;;;;;;;;4987752;28;20634;-73
2022/02/18 06:04:44;;;;;;;0.00;0.00;;;;;;;;;;4973005;28;20375;-73
2022/02/18 06:07:10;;;;;;;0.22;0.20;;;;;;;;;;4988982;28;20038;-73
2022/02/18 06:09:36;;;;;;;0.10;0.10;;;;;;;;;;4992627;28;20392;-73
2022/02/18 06:12:02;;;;;;;0.10;0.10;;;;;;;;;;4993961;28;20714;-73
2022/02/18 06:14:27;;;;;;;0.22;0.22;;;;;;;;;;4985434;28;20038;-73
2022/02/18 06:19:57;;;;;;;0.00;0.00;;;;;;;;;;4980918;28;20518;-73
2022/02/18 06:22:23;;;;;;;0.30;0.30;;;;;;;;;;4987122;28;20031;-71
2022/02/18 06:24:49;;;;;;;0.15;0.15;;;;;;;;;;4989360;28;20170;-72
2022/02/18 06:27:15;;;;;;;0.10;0.10;;;;;;;;;;4988689;28;20558;-73
2022/02/18 06:29:41;;;;;;;0.00;0.00;;;;;;;;;;4985083;28;20026;-73
2022/02/18 06:32:08;;;;;;;1.25;1.17;;;;;;;;;;4983851;28;20045;-72
2022/02/18 06:34:34;;;;;;;0.03;0.03;;;;;;;;;;4982017;28;20030;-73
2022/02/18 06:37:00;;;;;;;1.08;0.75;;;;;;;;;;4986615;28;20030;-74
2022/02/18 06:39:26;;;;;;;1.02;0.85;;;;;;;;;;4987062;28;20477;-73
2022/02/18 06:41:52;;;;;;;0.10;0.10;;;;;;;;;;4987975;28;20030;-73
2022/02/18 06:44:18;;;;;;;0.30;0.30;;;;;;;;;;4983954;28;20026;-73
2022/02/18 06:46:44;;;;;;;0.10;0.10;;;;;;;;;;4992602;28;20026;-73
2022/02/18 06:49:10;;;;;;;0.85;0.35;;;;;;;;;;4984027;28;20489;-73
2022/02/18 06:51:36;;;;;;;0.00;0.00;;;;;;;;;;4987006;28;20045;-76
2022/02/18 06:54:02;;;;;;;0.05;0.05;;;;;;;;;;4987060;28;20030;-76
2022/02/18 06:56:48;;;;;;;0.10;0.10;;;;;;;;;;5000064;28;20032;-75
2022/02/18 06:59:14;;;;;;;0.10;0.10;;;;;;;;;;5009641;28;20407;-77
2022/02/18 07:01:40;;;;;;;0.20;0.20;;;;;;;;;;5004372;28;20030;-72
2022/02/18 07:04:06;;;;;;;0.10;0.10;;;;;;;;;;5004679;28;20050;-72
2022/02/18 07:06:32;;;;;;;1.55;1.45;;;;;;;;;;5005440;28;20555;-71
2022/02/18 07:08:58;;;;;;;1.27;0.60;;;;;;;;;;4997905;28;20022;-74
2022/02/18 07:11:24;;;;;;;0.20;0.20;;;;;;;;;;4998673;28;20158;-73
2022/02/18 07:13:50;;;;;;;0.10;0.10;;;;;;;;;;5009970;28;20322;-76
2022/02/18 07:16:16;;;;;;;0.00;0.00;;;;;;;;;;5007610;28;20034;-73
2022/02/18 07:18:42;;;;;;;0.00;0.00;;;;;;;;;;5006682;28;20085;-74
2022/02/18 07:21:08;;;;;;;0.20;0.20;;;;;;;;;;5003512;28;20108;-74
2022/02/18 07:23:34;;;;;;;0.10;0.10;;;;;;;;;;5004600;28;20370;-74
2022/02/18 07:26:01;;;;;;;0.20;0.20;;;;;;;;;;5003854;28;20075;-74
2022/02/18 07:28:27;;;;;;;4.82;1.30;;;;;;;;;;5010012;28;20032;-75
2022/02/18 07:30:53;;;;;;;0.30;0.30;;;;;;;;;;5009545;28;20022;-75
2022/02/18 07:33:19;;;;;;;0.20;0.20;;;;;;;;;;4997531;28;20109;-74
2022/02/18 07:35:45;;;;;;;1.48;1.38;;;;;;;;;;4992200;28;20161;-75
2022/02/18 07:38:11;;;;;;;0.30;0.30;;;;;;;;;;5005705;28;20131;-75
2022/02/18 07:40:37;;;;;;;0.10;0.10;;;;;;;;;;5001900;28;20049;-75
2022/02/18 07:43:04;;;;;;;0.10;0.10;;;;;;;;;;4995873;28;20027;-75
2022/02/18 07:45:30;;;;;;;0.20;0.20;;;;;;;;;;5006897;28;20053;-76
2022/02/18 07:47:57;;;;;;;0.10;0.10;;;;;;;;;;5002423;28;20026;-75
2022/02/18 07:50:23;;;;;;;0.20;0.20;;;;;;;;;;5003322;28;20030;-74
2022/02/18 07:52:49;;;;;;;0.10;0.10;;;;;;;;;;5010023;28;20077;-76
2022/02/18 07:55:15;;;;;;;0.50;0.50;;;;;;;;;;5002687;28;20058;-75
2022/02/18 07:57:41;;;;;;;0.10;0.10;;;;;;;;;;5002735;28;20121;-75
2022/02/18 08:00:08;;;;;;;0.98;0.80;;;;;;;;;;5009681;28;20124;-75
2022/02/18 08:02:34;;;;;;;12.45;2.08;;;;;;;;;;5013586;28;20053;-75
2022/02/18 08:05:00;;;;;;;0.25;0.25;;;;;;;;;;5015089;28;20041;-74
2022/02/18 08:07:26;;;;;;;0.20;0.20;;;;;;;;;;5003936;28;20046;-74
2022/02/18 08:09:55;;;;;;;0.13;0.13;;;;;;;;;;5003974;28;20076;-78
2022/02/18 08:12:21;;;;;;;0.50;0.50;;;;;;;;;;5004620;28;20018;-75
2022/02/18 08:14:47;;;;;;;0.30;0.30;;;;;;;;;;5010415;28;20084;-75
2022/02/18 08:17:13;;;;;;;0.65;0.65;;;;;;;;;;5009021;28;20104;-76
2022/02/18 08:19:39;;;;;;;0.10;0.10;;;;;;;;;;5009216;28;20136;-76
2022/02/18 08:22:05;;;;;;;0.57;0.40;;;;;;;;;;5008638;28;20379;-74
2022/02/18 08:24:31;;;;;;;0.00;0.00;;;;;;;;;;5006391;28;20455;-75
2022/02/18 08:26:57;;;;;;;0.35;0.35;;;;;;;;;;5002034;28;20018;-74
2022/02/18 08:29:24;;;;;;;0.45;0.45;;;;;;;;;;5003812;28;20473;-73
2022/02/18 08:31:50;;;;;;;1.08;0.85;;;;;;;;;;5007252;28;20030;-73
2022/02/18 08:34:16;;;;;;;0.77;0.17;;;;;;;;;;5005109;28;20038;-75
2022/02/18 08:36:42;;;;;;;1.65;0.80;;;;;;;;;;5006201;28;20121;-75
2022/02/18 08:39:08;;;;;;;0.20;0.20;;;;;;;;;;5009801;28;20458;-75
2022/02/18 08:41:35;;;;;;;0.32;0.22;;;;;;;;;;5005396;28;20412;-75
2022/02/18 08:44:01;;;;;;;0.47;0.47;;;;;;;;;;5001959;28;20365;-74
2022/02/18 08:46:27;;;;;;;0.60;0.45;;;;;;;;;;5006837;28;20056;-74
2022/02/18 08:48:53;;;;;;;0.15;0.10;;;;;;;;;;5006925;28;20025;-74
2022/02/18 08:51:20;;;;;;;0.35;0.35;;;;;;;;;;4996794;28;20072;-74
2022/02/18 08:53:46;;;;;;;0.52;0.52;;;;;;;;;;5000001;28;20034;-75
2022/02/18 08:56:12;;;;;;;0.13;0.13;;;;;;;;;;5002818;28;20057;-75
2022/02/18 08:58:38;;;;;;;1.45;1.35;;;;;;;;;;5006389;28;20025;-75
2022/02/18 09:01:04;;;;;;;5.93;0.73;;;;;;;;;;5004890;28;20116;-76
2022/02/18 09:03:30;;;;;;;0.22;0.22;;;;;;;;;;5003453;28;20295;-73
2022/02/18 09:05:56;;;;;;;1.88;0.70;;;;;;;;;;5003502;28;20034;-71
2022/02/18 09:08:24;;;;;;;0.00;0.00;;;;;;;;;;5007090;28;20080;-71
2022/02/18 09:10:51;;;;;;;0.20;0.20;;;;;;;;;;4996235;28;20416;-75
2022/02/18 09:13:16;;;;;;;0.17;0.17;;;;;;;;;;4998508;28;20027;-75
2022/02/18 09:15:42;;;;;;;7.38;0.90;;;;;;;;;;5008704;28;20060;-75
2022/02/18 09:18:08;;;;;;;0.13;0.13;;;;;;;;;;4999305;28;20038;-75
2022/02/18 09:20:35;;;;;;;0.35;0.35;;;;;;;;;;4994597;28;20035;-79
2022/02/18 09:23:01;;;;;;;0.52;0.40;;;;;;;;;;5002385;28;20136;-75
2022/02/18 09:25:26;;;;;;;0.00;0.00;;;;;;;;;;4999082;28;20441;-78
2022/02/18 09:27:52;;;;;;;0.10;0.10;;;;;;;;;;4997455;28;20109;-74
2022/02/18 09:30:18;;;;;;;3.00;1.45;;;;;;;;;;4995853;28;20022;-74
2022/02/18 09:32:44;;;;;;;0.43;0.43;;;;;;;;;;5000666;28;20053;-73
2022/02/18 09:35:10;;;;;;;9.18;0.85;;;;;;;;;;4999870;28;20045;-74
2022/02/18 09:37:37;;;;;;;0.40;0.40;;;;;;;;;;5005630;28;20206;-73
2022/02/18 09:40:04;;;;;;;0.80;0.80;;;;;;;;;;5011399;28;20109;-73
2022/02/18 09:42:30;;;;;;;0.85;0.50;;;;;;;;;;5006424;28;20026;-73
2022/02/18 09:44:56;;;;;;;0.10;0.10;;;;;;;;;;5007924;28;20117;-73
2022/02/18 09:47:22;;;;;;;0.80;0.75;;;;;;;;;;5005378;28;20229;-74
2022/02/18 09:49:48;;;;;;;0.08;0.08;;;;;;;;;;4999837;28;20026;-73
2022/02/18 09:52:14;;;;;;;0.03;0.03;;;;;;;;;;5002875;28;20456;-73
2022/02/18 09:54:41;;;;;;;0.22;0.22;;;;;;;;;;5002180;28;20450;-74
2022/02/18 09:57:07;;;;;;;0.00;0.00;;;;;;;;;;4998242;28;20711;-72
2022/02/18 09:59:33;;;;;;;5.68;0.60;;;;;;;;;;4999312;28;20029;-73
2022/02/18 10:01:59;;;;;;;0.10;0.10;;;;;;;;;;4985611;28;20026;-73
2022/02/18 10:04:25;;;;;;;0.17;0.17;;;;;;;;;;4997497;28;20037;-73
2022/02/18 10:06:51;;;;;;;0.52;0.52;;;;;;;;;;4998863;28;20104;-74
2022/02/18 10:09:35;;;;;;;0.52;0.52;;;;;;;;;;5003485;28;20123;-73
2022/02/18 10:12:02;;;;;;;0.10;0.10;;;;;;;;;;5007273;28;20026;-73
2022/02/18 10:14:33;;;;;;;0.08;0.08;;;;;;;;;;4997322;28;20426;-72
2022/02/18 10:17:09;;;;;;;0.30;0.30;;;;;;;;;;5003790;28;20112;-73
2022/02/18 10:19:36;;;;;;;0.52;0.47;;;;;;;;;;4998429;28;20503;-73
2022/02/18 10:22:03;;;;;;;0.00;0.00;;;;;;;;;;5003967;28;20030;-73
2022/02/18 10:24:38;;;;;;;0.08;0.08;;;;;;;;;;4996108;28;20037;-73
2022/02/18 10:27:05;;;;;;;0.20;0.20;;;;;;;;;;5002947;28;20041;-73
2022/02/18 10:29:31;;;;;;;0.10;0.10;;;;;;;;;;5005064;28;20065;-72
2022/02/18 10:32:07;;;;;;;0.90;0.60;;;;;;;;;;5002551;28;20492;-73
2022/02/18 10:34:50;;;;;;;1.05;0.98;;;;;;;;;;5004354;28;20022;-73
2022/02/18 10:37:16;;;;;;;0.00;0.00;;;;;;;;;;4999944;28;20057;-73
2022/02/18 10:39:42;;;;;;;0.10;0.10;;;;;;;;;;5001704;28;20050;-73
2022/02/18 10:42:08;;;;;;;0.03;0.03;;;;;;;;;;5007262;28;20105;-73
2022/02/18 10:44:35;;;;;;;0.00;0.00;;;;;;;;;;5004102;28;20207;-73
2022/02/18 10:47:07;;;;;;;0.63;0.63;;;;;;;;;;5007283;28;20076;-73
2022/02/18 10:49:43;;;;;;;0.00;0.00;;;;;;;;;;5001521;28;20105;-72
2022/02/18 10:52:17;;;;;;;10.88;1.38;;;;;;;;;;5004695;28;20026;-73
2022/02/18 10:54:47;;;;;;;0.57;0.30;;;;;;;;;;5005609;28;20046;-73
2022/02/18 10:57:16;;;;;;;0.00;0.00;;;;;;;;;;4997810;28;20084;-73
2022/02/18 10:59:42;;;;;;;0.00;0.00;;;;;;;;;;4989727;28;20030;-73
2022/02/18 11:02:08;;;;;;;0.30;0.30;;;;;;;;;;5005866;28;20380;-72
2022/02/18 11:04:33;;;;;;;0.10;0.10;;;;;;;;;;5004015;28;20088;-73
2022/02/18 11:07:09;;;;;;;0.00;0.00;;;;;;;;;;5005659;28;20026;-73
2022/02/18 11:09:35;;;;;;;0.57;0.57;;;;;;;;;;5002611;28;20410;-73
2022/02/18 11:12:06;;;;;;;0.35;0.35;;;;;;;;;;4999981;28;20053;-72
2022/02/18 11:14:32;;;;;;;0.10;0.10;;;;;;;;;;5007658;28;20112;-73
2022/02/18 11:16:59;;;;;;;0.88;0.85;;;;;;;;;;5005353;28;20496;-72
2022/02/18 11:19:25;;;;;;;1.48;1.00;;;;;;;;;;4988087;28;20056;-73
2022/02/18 11:21:51;;;;;;;0.00;0.00;;;;;;;;;;5001880;28;20112;-73
2022/02/18 11:24:18;;;;;;;0.10;0.10;;;;;;;;;;5004205;28;20084;-73
2022/02/18 11:26:44;;;;;;;0.85;0.85;;;;;;;;;;5002554;28;20025;-72
2022/02/18 11:29:10;;;;;;;0.65;0.65;;;;;;;;;;4996793;28;20305;-73
2022/02/18 11:31:36;;;;;;;0.00;0.00;;;;;;;;;;5008040;28;20525;-74
2022/02/18 11:34:14;;;;;;;0.45;0.30;;;;;;;;;;4994457;28;20042;-73
2022/02/18 11:36:46;;;;;;;0.25;0.25;;;;;;;;;;4997864;28;20038;-73
2022/02/18 11:39:12;;;;;;;;;;;;;;;;;;4996278;28;20064;-74
2022/02/18 11:41:44;;;;;;;1.10;0.80;;;;;;;;;;4992981;28;19913;-73
2022/02/18 11:44:11;;;;;;;0.00;0.00;;;;;;;;;;4999976;28;20026;-73
2022/02/18 11:46:37;;;;;;;0.00;0.00;;;;;;;;;;4997645;28;20038;-73
2022/02/18 11:49:07;;;;;;;0.28;0.25;;;;;;;;;;4999506;28;20018;-74
2022/02/18 11:51:40;;;;;;;0.10;0.10;;;;;;;;;;5003871;28;20400;-73
2022/02/18 11:54:22;;;;;;;0.63;0.63;;;;;;;;;;5000763;28;20026;-74
2022/02/18 11:56:53;;;;;;;0.10;0.10;;;;;;;;;;5000720;28;20429;-75
2022/02/18 11:59:19;;;;;;;0.00;0.00;;;;;;;;;;5000798;28;20113;-74
2022/02/18 12:02:03;;;;;;;0.10;0.10;;;;;;;;;;5004059;28;20381;-74
2022/02/18 12:04:29;;;;;;;0.10;0.10;;;;;;;;;;5004613;28;20137;-74
2022/02/18 12:07:20;;;;;;;0.43;0.43;;;;;;;;;;4994773;28;20125;-77
2022/02/18 12:09:52;;;;;;;0.05;0.05;;;;;;;;;;5000665;28;20026;-74
2022/02/18 12:12:22;;;;;;;0.00;0.00;;;;;;;;;;4996647;28;20048;-75
2022/02/18 12:14:48;;;;;;;0.13;0.13;;;;;;;;;;4999744;28;20048;-73
2022/02/18 12:17:14;;;;;;;0.08;0.08;;;;;;;;;;4992984;28;20030;-71
2022/02/18 12:19:40;;;;;;;0.00;0.00;;;;;;;;;;5002056;28;20044;-73
2022/02/18 12:22:06;;;;;;;0.30;0.30;;;;;;;;;;4997552;28;20034;-71
2022/02/18 12:24:32;;;;;;;0.20;0.20;;;;;;;;;;4988111;28;20030;-72
2022/02/18 12:27:17;;;;;;;0.00;0.00;;;;;;;;;;4988218;28;20030;-74
2022/02/18 12:29:42;;;;;;;0.47;0.47;;;;;;;;;;5000724;28;20547;-72
2022/02/18 12:32:08;;;;;;;0.05;0.05;;;;;;;;;;5004184;28;20030;-71
2022/02/18 12:34:34;;;;;;;0.30;0.30;;;;;;;;;;4998586;28;20037;-72
2022/02/18 12:37:00;;;;;;;0.38;0.15;;;;;;;;;;4993328;28;20069;-72
2022/02/18 12:39:42;;;;;;;0.05;0.05;;;;;;;;;;5002527;28;20503;-73
2022/02/18 12:42:10;;;;;;;0.00;0.00;;;;;;;;;;5003549;28;20038;-72
2022/02/18 12:44:43;;;;;;;0.00;0.00;;;;;;;;;;5007877;28;20030;-73
2022/02/18 12:47:09;;;;;;;0.17;0.17;;;;;;;;;;5001977;28;20092;-73
2022/02/18 12:49:42;;;;;;;0.25;0.20;;;;;;;;;;5006096;28;20022;-72
2022/02/18 12:52:08;;;;;;;1.98;1.30;;;;;;;;;;4998855;28;20041;-73
2022/02/18 12:54:46;;;;;;;0.10;0.10;;;;;;;;;;5006353;28;20057;-73
2022/02/18 12:57:20;;;;;;;0.13;0.13;;;;;;;;;;4998973;28;20034;-72
2022/02/18 12:59:46;;;;;;;0.10;0.10;;;;;;;;;;4990585;28;20038;-71
2022/02/18 13:02:32;;;;;;;0.10;0.10;;;;;;;;;;4999798;28;20034;-72
2022/02/18 13:05:04;;;;;;;0.00;0.00;;;;;;;;;;4999665;28;20054;-72
2022/02/18 13:07:34;;;;;;;0.08;0.08;;;;;;;;;;5006669;28;20066;-71
2022/02/18 13:10:00;;;;;;;0.00;0.00;;;;;;;;;;5009368;28;20109;-71
2022/02/18 13:12:25;;;;;;;0.08;0.08;;;;;;;;;;5003580;28;20117;-72
2022/02/18 13:15:03;;;;;;;0.10;0.10;;;;;;;;;;5004312;28;20034;-71
2022/02/18 13:17:29;;;;;;;0.00;0.00;;;;;;;;;;5000135;28;20172;-72
2022/02/18 13:19:55;;;;;;;0.52;0.20;;;;;;;;;;4998836;28;20532;-72
2022/02/18 13:22:21;;;;;;;0.10;0.10;;;;;;;;;;5001667;28;20049;-71
2022/02/18 13:24:47;;;;;;;8.05;2.53;;;;;;;;;;4999449;28;20388;-72
2022/02/18 13:27:14;;;;;;;0.00;0.00;;;;;;;;;;4991672;28;20030;-72
2022/02/18 13:29:43;;;;;;;0.20;0.20;;;;;;;;;;5013082;28;20030;-72
2022/02/18 13:32:19;;;;;;;0.05;0.05;;;;;;;;;;5011903;28;20056;-71
2022/02/18 13:34:49;;;;;;;0.00;0.00;;;;;;;;;;4996840;28;20035;-72
2022/02/18 13:37:18;;;;;;;0.00;0.00;;;;;;;;;;4989931;28;20089;-72
2022/02/18 13:39:45;;;;;;;0.00;0.00;;;;;;;;;;4994302;28;20461;-71
2022/02/18 13:42:11;;;;;;;1.75;0.50;;;;;;;;;;4989234;28;20092;-72
2022/02/18 13:44:37;;;;;;;0.28;0.28;;;;;;;;;;5009196;28;20439;-72
2022/02/18 13:47:06;;;;;;;0.08;0.08;;;;;;;;;;5003906;28;20537;-72
2022/02/18 13:49:32;;;;;;;0.20;0.20;;;;;;;;;;4994867;28;20030;-72
2022/02/18 13:51:58;;;;;;;0.08;0.08;;;;;;;;;;4989524;28;20019;-72
2022/02/18 13:54:28;;;;;;;0.20;0.20;;;;;;;;;;4995767;28;20053;-73
2022/02/18 13:57:04;;;;;;;0.15;0.15;;;;;;;;;;5007490;28;20536;-72
2022/02/18 13:59:30;;;;;;;0.00;0.00;;;;;;;;;;5003459;28;20033;-73
2022/02/18 14:02:14;;;;;;;0.00;0.00;;;;;;;;;;5008670;28;20034;-73
2022/02/18 14:05:00;;;;;;;0.30;0.30;;;;;;;;;;5004872;28;20027;-72
2022/02/18 14:07:26;;;;;;;0.10;0.10;;;;;;;;;;5006488;28;20508;-71
2022/02/18 14:09:56;;;;;;;8.57;2.65;;;;;;;;;;5002625;28;20029;-73
2022/02/18 14:12:40;;;;;;;0.10;0.10;;;;;;;;;;5004297;28;20551;-72
2022/02/18 14:15:10;;;;;;;0.00;0.00;;;;;;;;;;4997734;28;20053;-72
2022/02/18 14:17:41;;;;;;;0.03;0.03;;;;;;;;;;4996990;28;20033;-72
2022/02/18 14:20:07;;;;;;;0.30;0.30;;;;;;;;;;5001858;28;20030;-72
2022/02/18 14:22:35;;;;;;;0.00;0.00;;;;;;;;;;4998177;28;20053;-72
2022/02/18 14:25:02;;;;;;;0.05;0.05;;;;;;;;;;4996049;28;20037;-73
2022/02/18 14:27:28;;;;;;;0.20;0.20;;;;;;;;;;5001681;28;20018;-72
2022/02/18 14:29:58;;;;;;;0.10;0.10;;;;;;;;;;4989306;28;20370;-72
2022/02/18 14:32:28;;;;;;;0.40;0.40;;;;;;;;;;5001967;28;20044;-72
2022/02/18 14:35:02;;;;;;;3.92;2.90;;;;;;;;;;5007657;28;20030;-72
2022/02/18 14:37:28;;;;;;;0.10;0.10;;;;;;;;;;5008748;28;20105;-72
2022/02/18 14:39:54;;;;;;;3.03;0.73;;;;;;;;;;5007403;28;20081;-71
2022/02/18 14:42:20;;;;;;;0.00;0.00;;;;;;;;;;5001568;28;20025;-73
2022/02/18 14:44:51;;;;;;;0.10;0.10;;;;;;;;;;5003985;28;20057;-72
2022/02/18 14:47:18;;;;;;;0.20;0.20;;;;;;;;;;5002628;28;20025;-72